Time;durP1;ratioP1;P1;durP2;ratioP2;P2;SDS_P1;SDS_P2;PMS_P1;PMS_P2;Temp;Humidity;BMP_temperature;BMP_pressure;BME280_temperature;BME280_humidity;BME280_pressure;Samples;Min_cycle;Max_cycle;Signal;HPM_P1;HPM_P2
2021/11/26 00:00:22;;;;;;;;;;;;;;;14.15;69.73;100414.25;1052784;28;744;-61
2021/11/26 00:01:12;;;;;;;;;;;;;;;14.12;70.89;100418.03;1052648;28;779;-62
2021/11/26 00:02:03;;;;;;;;;;;;;;;14.11;70.51;100412.81;1052917;28;725;-61
2021/11/26 00:02:53;;;;;;;;;;;;;;;14.11;70.67;100419.00;1052991;28;921;-61
2021/11/26 00:03:44;;;;;;;;;;;;;;;14.11;70.24;100419.00;1052841;28;617;-61
2021/11/26 00:04:34;;;;;;;;;;;;;;;14.13;70.12;100418.88;1052933;28;716;-61
2021/11/26 00:05:24;;;;;;;;;;;;;;;14.12;70.13;100420.72;1052608;28;1146;-61
2021/11/26 00:06:15;;;;;;;;;;;;;;;14.12;70.07;100419.88;1052848;28;653;-61
2021/11/26 00:07:05;;;;;;;;;;;;;;;14.12;70.55;100431.44;1053036;28;926;-61
2021/11/26 00:07:56;;;;;;;;;;;;;;;14.12;70.52;100428.75;1052732;28;637;-61
2021/11/26 00:08:46;;;;;;;;;;;;;;;14.12;70.30;100430.59;1052885;28;784;-61
2021/11/26 00:09:36;;;;;;;;;;;;;;;14.11;69.98;100424.38;1052743;28;855;-61
2021/11/26 00:10:27;;;;;;;;;;;;;;;14.11;69.96;100413.66;1053390;28;1813;-61
2021/11/26 00:11:17;;;;;;;;;;;;;;;14.10;70.00;100405.75;1053639;28;901;-60
2021/11/26 00:12:08;;;;;;;;;;;;;;;14.10;70.17;100395.88;1049969;28;1229;-61
2021/11/26 00:13:02;;;;;;;;;;;;;;;14.09;70.62;100387.97;1048389;28;932;-60
2021/11/26 00:15:52;;;;;;;;;;;;;;;14.08;70.83;100380.91;1050260;28;715;-60
2021/11/26 00:16:43;;;;;;;;;;;;;;;14.07;70.61;100380.06;1048890;28;724;-61
2021/11/26 00:17:38;;;;;;;;;;;;;;;14.06;70.50;100373.00;1048609;28;881;-61
2021/11/26 00:18:30;;;;;;;;;;;;;;;14.05;70.11;100376.66;1048635;28;756;-60
2021/11/26 00:19:21;;;;;;;;;;;;;;;14.04;70.69;100369.59;1048568;28;771;-60
2021/11/26 00:20:12;;;;;;;;;;;;;;;14.05;70.12;100367.78;1048741;28;827;-61
2021/11/26 00:21:02;;;;;;;;;;;;;;;14.04;70.59;100358.88;1048848;28;721;-61
2021/11/26 00:21:52;;;;;;;;;;;;;;;14.04;70.29;100356.22;1048509;28;653;-61
2021/11/26 00:22:43;;;;;;;;;;;;;;;14.05;70.63;100359.75;1048743;28;727;-61
2021/11/26 00:23:33;;;;;;;;;;;;;;;14.04;70.35;100350.84;1048716;28;826;-61
2021/11/26 00:24:24;;;;;;;;;;;;;;;14.04;69.92;100358.88;1048470;28;779;-61
2021/11/26 00:25:14;;;;;;;;;;;;;;;14.03;70.54;100345.63;1050333;28;1917;-61
2021/11/26 00:26:04;;;;;;;;;;;;;;;14.03;70.81;100354.50;1048968;28;771;-62
2021/11/26 00:26:55;;;;;;;;;;;;;;;14.03;70.56;100345.63;1050209;28;664;-62
2021/11/26 00:27:45;;;;;;;;;;;;;;;14.04;70.91;100342.81;1050281;28;846;-62
2021/11/26 00:28:36;;;;;;;;;;;;;;;14.06;70.64;100348.03;1050365;28;747;-62
2021/11/26 00:29:26;;;;;;;;;;;;;;;14.05;70.32;100343.66;1048693;28;1429;-62
2021/11/26 00:30:16;;;;;;;;;;;;;;;14.04;69.89;100340.13;1050320;28;737;-63
2021/11/26 00:31:07;;;;;;;;;;;;;;;14.04;69.78;100337.47;1050207;28;1163;-63
2021/11/26 00:31:57;;;;;;;;;;;;;;;14.05;70.34;100333.78;1050089;28;747;-63
2021/11/26 00:32:48;;;;;;;;;;;;;;;14.04;70.59;100331.25;1050203;28;720;-63
2021/11/26 00:33:38;;;;;;;;;;;;;;;14.02;70.72;100327.84;1050442;28;740;-62
2021/11/26 00:34:28;;;;;;;;;;;;;;;14.01;70.91;100326.16;1050310;28;699;-62
2021/11/26 00:35:19;;;;;;;;;;;;;;;14.01;71.28;100323.47;1050233;28;724;-62
2021/11/26 00:36:09;;;;;;;;;;;;;;;13.99;70.84;100326.28;1049950;28;878;-62
2021/11/26 00:37:00;;;;;;;;;;;;;;;13.99;70.50;100312.03;1049219;28;633;-62
2021/11/26 00:37:50;;;;;;;;;;;;;;;13.97;71.38;100314.88;1049313;28;728;-62
2021/11/26 00:38:41;;;;;;;;;;;;;;;13.98;70.40;100311.19;1050263;28;698;-62
2021/11/26 00:39:31;;;;;;;;;;;;;;;13.98;70.42;100311.19;1050360;28;752;-62
2021/11/26 00:40:21;;;;;;;;;;;;;;;13.97;70.86;100312.22;1052475;28;1836;-63
2021/11/26 00:41:12;;;;;;;;;;;;;;;13.98;70.82;100315.69;1052786;28;770;-62
2021/11/26 00:42:02;;;;;;;;;;;;;;;13.97;70.51;100309.53;1052839;28;681;-61
2021/11/26 00:42:53;;;;;;;;;;;;;;;13.98;71.24;100311.19;1052611;28;684;-61
2021/11/26 00:43:46;;;;;;;;;;;;;;;13.99;70.12;100312.03;1052753;28;693;-61
2021/11/26 00:44:36;;;;;;;;;;;;;;;13.97;71.28;100314.88;1052648;28;1263;-62
2021/11/26 00:45:28;;;;;;;;;;;;;;;13.95;71.11;100300.78;1052625;28;808;-62
2021/11/26 00:46:18;;;;;;;;;;;;;;;13.94;71.13;100301.75;1053021;28;1434;-61
2021/11/26 00:47:08;;;;;;;;;;;;;;;13.94;70.74;100304.44;1056205;28;717;-62
2021/11/26 00:47:59;;;;;;;;;;;;;;;13.93;70.40;100313.44;1056480;28;638;-61
2021/11/26 00:48:49;;;;;;;;;;;;;;;13.95;70.59;100314.16;1056486;28;834;-61
2021/11/26 00:49:40;;;;;;;;;;;;;;;13.96;70.45;100307.81;1056335;28;761;-61
2021/11/26 00:50:30;;;;;;;;;;;;;;;13.96;70.92;100310.50;1056344;28;722;-61
2021/11/26 00:51:20;;;;;;;;;;;;;;;13.96;70.68;100312.34;1056163;28;727;-61
2021/11/26 00:52:11;;;;;;;;;;;;;;;13.95;71.27;100311.50;1056395;28;751;-63
2021/11/26 00:53:01;;;;;;;;;;;;;;;13.96;70.28;100312.34;1057904;28;847;-61
2021/11/26 00:53:52;;;;;;;;;;;;;;;13.93;70.76;100302.72;1056299;28;634;-61
2021/11/26 00:54:42;;;;;;;;;;;;;;;13.93;70.93;100302.72;1056507;28;928;-61
2021/11/26 00:55:32;;;;;;;;;;;;;;;13.91;71.39;100304.69;1056249;28;757;-61
2021/11/26 00:56:23;;;;;;;;;;;;;;;13.90;70.54;100314.56;1056468;28;844;-59
2021/11/26 00:57:13;;;;;;;;;;;;;;;13.92;70.40;100310.91;1055798;28;1319;-60
2021/11/26 00:58:04;;;;;;;;;;;;;;;13.93;71.17;100307.25;1056294;28;767;-60
2021/11/26 00:58:54;;;;;;;;;;;;;;;13.91;70.86;100296.66;1056474;28;948;-60
2021/11/26 00:59:45;;;;;;;;;;;;;;;13.93;70.85;100296.53;1057995;28;644;-60
2021/11/26 01:00:35;;;;;;;;;;;;;;;13.92;70.46;100289.47;1056505;28;855;-60
2021/11/26 01:01:26;;;;;;;;;;;;;;;13.92;71.30;100284.97;1049476;28;686;-61
2021/11/26 01:02:16;;;;;;;;;;;;;;;13.92;71.19;100286.78;1048681;28;765;-61
2021/11/26 01:03:07;;;;;;;;;;;;;;;13.90;70.98;100282.41;1052316;28;2105;-60
2021/11/26 01:03:57;;;;;;;;;;;;;;;13.92;71.33;100278.75;1052684;28;676;-60
2021/11/26 01:04:47;;;;;;;;;;;;;;;13.92;70.69;100284.13;1052524;28;724;-60
2021/11/26 01:05:38;;;;;;;;;;;;;;;13.91;70.29;100280.59;1052325;28;1277;-59
2021/11/26 01:06:28;;;;;;;;;;;;;;;13.89;70.88;100279.88;1052238;28;1971;-59
2021/11/26 01:07:19;;;;;;;;;;;;;;;13.89;70.81;100274.50;1052540;28;968;-59
2021/11/26 01:08:09;;;;;;;;;;;;;;;13.89;70.41;100275.38;1052704;28;684;-59
2021/11/26 01:09:00;;;;;;;;;;;;;;;13.91;70.08;100277.91;1052494;28;720;-60
2021/11/26 01:09:50;;;;;;;;;;;;;;;13.89;70.31;100274.50;1052562;28;769;-60
2021/11/26 01:10:41;;;;;;;;;;;;;;;13.92;70.50;100278.75;1052248;28;697;-60
2021/11/26 01:11:31;;;;;;;;;;;;;;;13.87;70.38;100266.59;1052592;28;781;-60
2021/11/26 01:12:21;;;;;;;;;;;;;;;13.89;70.66;100274.50;1052317;28;709;-60
2021/11/26 01:13:12;;;;;;;;;;;;;;;13.89;70.34;100266.47;1052640;28;610;-60
2021/11/26 01:14:02;;;;;;;;;;;;;;;13.88;70.53;100264.78;1052694;28;665;-60
2021/11/26 01:14:53;;;;;;;;;;;;;;;13.86;70.71;100274.78;1052558;28;649;-60
2021/11/26 01:15:43;;;;;;;;;;;;;;;13.85;70.59;100270.41;1052552;28;904;-60
2021/11/26 01:16:34;;;;;;;;;;;;;;;13.85;71.19;100257.00;1052510;28;783;-60
2021/11/26 01:17:24;;;;;;;;;;;;;;;13.85;71.22;100259.69;1052618;28;735;-60
2021/11/26 01:18:14;;;;;;;;;;;;;;;13.84;71.12;100248.13;1052314;28;788;-61
2021/11/26 01:19:05;;;;;;;;;;;;;;;13.86;70.40;100254.19;1052612;28;806;-61
2021/11/26 01:19:55;;;;;;;;;;;;;;;13.86;70.30;100259.56;1052569;28;727;-60
2021/11/26 01:20:46;;;;;;;;;;;;;;;13.85;70.65;100251.66;1052537;28;641;-60
2021/11/26 01:21:36;;;;;;;;;;;;;;;13.83;71.17;100254.47;1052521;28;805;-60
2021/11/26 01:22:26;;;;;;;;;;;;;;;13.82;70.90;100260.81;1052281;28;658;-60
2021/11/26 01:23:17;;;;;;;;;;;;;;;13.83;70.80;100248.25;1052562;28;762;-60
2021/11/26 01:24:07;;;;;;;;;;;;;;;13.81;70.84;100255.56;1052503;28;816;-59
2021/11/26 01:24:58;;;;;;;;;;;;;;;13.81;70.63;100255.56;1052463;28;645;-58
2021/11/26 01:25:48;;;;;;;;;;;;;;;13.81;71.03;100256.44;1052566;28;704;-59
2021/11/26 01:26:38;;;;;;;;;;;;;;;13.82;70.85;100254.59;1052241;28;1889;-59
2021/11/26 01:27:29;;;;;;;;;;;;;;;13.84;71.25;100250.81;1052537;28;771;-59
2021/11/26 01:28:19;;;;;;;;;;;;;;;13.82;71.37;100243.88;1052564;28;862;-59
2021/11/26 01:29:10;;;;;;;;;;;;;;;13.82;71.45;100241.19;1052046;28;1892;-59
2021/11/26 01:30:05;;;;;;;;;;;;;;;13.81;71.06;100239.50;1049703;28;720;-59
2021/11/26 01:30:56;;;;;;;;;;;;;;;13.81;70.97;100240.34;1048487;28;731;-60
2021/11/26 01:31:46;;;;;;;;;;;;;;;13.82;70.80;100243.88;1053769;28;665;-59
2021/11/26 01:32:37;;;;;;;;;;;;;;;13.82;71.10;100235.84;1052427;28;807;-60
2021/11/26 01:33:27;;;;;;;;;;;;;;;13.81;70.97;100234.16;1052597;28;794;-60
2021/11/26 01:34:17;;;;;;;;;;;;;;;13.81;71.14;100231.47;1052276;28;752;-60
2021/11/26 01:35:08;;;;;;;;;;;;;;;13.81;70.59;100234.16;1052530;28;646;-59
2021/11/26 01:35:59;;;;;;;;;;;;;;;13.81;70.66;100228.78;1052474;28;642;-59
2021/11/26 01:36:50;;;;;;;;;;;;;;;13.79;71.32;100230.78;1052538;28;622;-60
2021/11/26 01:37:40;;;;;;;;;;;;;;;13.79;70.69;100226.25;1049573;28;637;-60
2021/11/26 01:38:31;;;;;;;;;;;;;;;13.80;71.19;100227.09;1048482;28;818;-60
2021/11/26 01:39:21;;;;;;;;;;;;;;;13.79;70.41;100225.44;1052974;28;649;-60
2021/11/26 01:40:11;;;;;;;;;;;;;;;13.78;70.92;100229.09;1052926;28;681;-60
2021/11/26 01:41:04;;;;;;;;;;;;;;;13.78;71.26;100226.41;1053004;28;842;-59
2021/11/26 01:41:55;;;;;;;;;;;;;;;13.78;70.53;100221.06;1052881;28;644;-59
2021/11/26 01:42:46;;;;;;;;;;;;;;;13.76;70.53;100226.53;1052676;28;838;-59
2021/11/26 01:43:36;;;;;;;;;;;;;;;13.79;70.99;100222.75;1052663;28;764;-59
2021/11/26 01:44:27;;;;;;;;;;;;;;;13.78;70.88;100215.69;1052264;28;1629;-59
2021/11/26 01:45:17;;;;;;;;;;;;;;;13.78;70.32;100213.88;1052543;28;760;-59
2021/11/26 01:46:08;;;;;;;;;;;;;;;13.78;70.53;100226.41;1052401;28;781;-59
2021/11/26 01:46:58;;;;;;;;;;;;;;;13.79;70.47;100220.06;1048953;28;2020;-59
2021/11/26 01:47:49;;;;;;;;;;;;;;;13.77;71.20;100222.88;1047861;28;638;-59
2021/11/26 01:48:39;;;;;;;;;;;;;;;13.76;70.49;100215.84;1048479;28;810;-60
2021/11/26 01:49:30;;;;;;;;;;;;;;;13.76;70.97;100214.97;1049337;28;1784;-60
2021/11/26 01:50:22;;;;;;;;;;;;;;;13.77;71.12;100212.19;1052347;28;710;-59
2021/11/26 01:51:12;;;;;;;;;;;;;;;13.77;70.59;100208.66;1052520;28;968;-59
2021/11/26 01:52:03;;;;;;;;;;;;;;;13.75;71.31;100208.78;1052249;28;613;-59
2021/11/26 01:52:53;;;;;;;;;;;;;;;13.78;70.43;100202.31;1052456;28;637;-59
2021/11/26 01:53:43;;;;;;;;;;;;;;;13.77;71.03;100195.25;1052537;28;708;-59
2021/11/26 01:54:34;;;;;;;;;;;;;;;13.77;70.77;100195.25;1052420;28;719;-59
2021/11/26 01:55:24;;;;;;;;;;;;;;;13.78;70.21;100196.97;1052418;28;930;-60
2021/11/26 01:56:15;;;;;;;;;;;;;;;13.77;70.42;100192.59;1052280;28;831;-59
2021/11/26 01:57:05;;;;;;;;;;;;;;;13.76;70.46;100183.69;1052287;28;1374;-59
2021/11/26 01:57:55;;;;;;;;;;;;;;;13.75;71.11;100187.34;1052639;28;810;-59
2021/11/26 01:58:46;;;;;;;;;;;;;;;13.76;70.22;100185.53;1052400;28;657;-59
2021/11/26 01:59:36;;;;;;;;;;;;;;;13.75;71.09;100181.16;1052384;28;1230;-59
2021/11/26 02:00:27;;;;;;;;;;;;;;;13.77;70.19;100187.22;1052373;28;742;-59
2021/11/26 02:01:17;;;;;;;;;;;;;;;13.78;70.28;100180.88;1056419;28;772;-58
2021/11/26 02:02:07;;;;;;;;;;;;;;;13.76;70.15;100180.16;1056799;28;688;-60
2021/11/26 02:02:58;;;;;;;;;;;;;;;13.75;70.41;100178.47;1053088;28;633;-59
2021/11/26 02:03:48;;;;;;;;;;;;;;;13.77;70.21;100176.50;1052451;28;892;-59
2021/11/26 02:04:39;;;;;;;;;;;;;;;13.75;70.16;100176.66;1052258;28;764;-59
2021/11/26 02:05:29;;;;;;;;;;;;;;;13.77;70.92;100176.50;1052220;28;1216;-59
2021/11/26 02:06:20;;;;;;;;;;;;;;;13.75;71.12;100168.63;1052436;28;2038;-59
2021/11/26 02:07:11;;;;;;;;;;;;;;;13.75;70.80;100173.13;1052453;28;808;-61
2021/11/26 02:08:01;;;;;;;;;;;;;;;13.75;70.88;100165.94;1052490;28;893;-61
2021/11/26 02:08:52;;;;;;;;;;;;;;;13.74;70.58;100161.56;1052307;28;693;-60
2021/11/26 02:09:43;;;;;;;;;;;;;;;13.74;70.10;100163.41;1052449;28;681;-59
2021/11/26 02:10:33;;;;;;;;;;;;;;;13.73;70.82;100154.50;1048856;28;1889;-60
2021/11/26 02:11:23;;;;;;;;;;;;;;;13.71;71.15;100166.34;1048533;28;802;-60
2021/11/26 02:12:14;;;;;;;;;;;;;;;13.71;70.63;100163.66;1049646;28;1902;-60
2021/11/26 02:13:04;;;;;;;;;;;;;;;13.71;70.11;100159.16;1052538;28;680;-60
2021/11/26 02:13:55;;;;;;;;;;;;;;;13.73;70.93;100159.03;1052286;28;677;-60
2021/11/26 02:14:45;;;;;;;;;;;;;;;13.70;70.25;100149.44;1052431;28;716;-60
2021/11/26 02:15:41;;;;;;;;;;;;;;;13.72;70.34;100160.00;1052184;28;846;-60
2021/11/26 02:16:31;;;;;;;;;;;;;;;13.71;70.71;100151.13;1052352;28;867;-60
2021/11/26 02:17:21;;;;;;;;;;;;;;;13.70;70.72;100157.47;1052182;28;738;-60
2021/11/26 02:18:12;;;;;;;;;;;;;;;13.70;70.62;100154.78;1052310;28;962;-61
2021/11/26 02:19:02;;;;;;;;;;;;;;;13.70;70.29;100148.56;1052592;28;641;-60
2021/11/26 02:19:53;;;;;;;;;;;;;;;13.70;70.44;100141.38;1052267;28;708;-60
2021/11/26 02:20:43;;;;;;;;;;;;;;;13.71;70.47;100144.91;1052403;28;786;-60
2021/11/26 02:21:33;;;;;;;;;;;;;;;13.71;71.01;100142.25;1052053;28;685;-60
2021/11/26 02:22:24;;;;;;;;;;;;;;;13.71;71.08;100144.91;1052197;28;842;-61
2021/11/26 02:23:14;;;;;;;;;;;;;;;13.72;70.80;100138.56;1052541;28;696;-60
2021/11/26 02:24:05;;;;;;;;;;;;;;;13.72;70.00;100138.56;1052190;28;919;-61
2021/11/26 02:24:55;;;;;;;;;;;;;;;13.71;70.39;100136.88;1052379;28;809;-60
2021/11/26 02:25:46;;;;;;;;;;;;;;;13.71;70.03;100136.88;1052214;28;765;-60
2021/11/26 02:26:36;;;;;;;;;;;;;;;13.70;70.27;100135.19;1052126;28;1885;-60
2021/11/26 02:27:26;;;;;;;;;;;;;;;13.69;71.24;100130.81;1052488;28;685;-60
2021/11/26 02:28:17;;;;;;;;;;;;;;;13.68;70.87;100132.66;1052279;28;709;-60
2021/11/26 02:29:07;;;;;;;;;;;;;;;13.68;70.88;100129.97;1052271;28;885;-60
2021/11/26 02:29:58;;;;;;;;;;;;;;;13.69;70.50;100130.81;1052199;28;618;-60
2021/11/26 02:30:48;;;;;;;;;;;;;;;13.69;69.98;100123.63;1052322;28;842;-61
2021/11/26 02:31:39;;;;;;;;;;;;;;;13.67;70.19;100125.59;1052165;28;697;-60
2021/11/26 02:32:29;;;;;;;;;;;;;;;13.69;70.81;100128.97;1052265;28;646;-60
2021/11/26 02:33:19;;;;;;;;;;;;;;;13.68;70.81;100121.09;1052451;28;677;-60
2021/11/26 02:34:10;;;;;;;;;;;;;;;13.69;70.63;100128.13;1052339;28;842;-59
2021/11/26 02:35:00;;;;;;;;;;;;;;;13.68;70.52;100118.41;1052328;28;834;-59
2021/11/26 02:35:51;;;;;;;;;;;;;;;13.68;70.52;100113.06;1052178;28;786;-59
2021/11/26 02:36:42;;;;;;;;;;;;;;;13.69;70.26;100112.06;1052284;28;693;-59
2021/11/26 02:37:32;;;;;;;;;;;;;;;13.69;71.00;100106.72;1056394;28;724;-59
2021/11/26 02:38:23;;;;;;;;;;;;;;;13.67;70.62;100108.69;1054858;28;1827;-58
2021/11/26 02:39:13;;;;;;;;;;;;;;;13.68;70.50;100110.38;1049281;28;964;-58
2021/11/26 02:40:04;;;;;;;;;;;;;;;13.68;70.50;100105.03;1048697;28;633;-59
2021/11/26 02:40:54;;;;;;;;;;;;;;;13.67;69.89;100106.84;1048660;28;706;-58
2021/11/26 02:41:44;;;;;;;;;;;;;;;13.68;70.05;100099.66;1047862;28;679;-59
2021/11/26 02:42:35;;;;;;;;;;;;;;;13.68;70.73;100099.66;1048029;28;626;-59
2021/11/26 02:43:25;;;;;;;;;;;;;;;13.68;70.81;100099.66;1048797;28;958;-59
2021/11/26 02:44:16;;;;;;;;;;;;;;;13.65;70.92;100090.06;1048544;28;1028;-60
2021/11/26 02:45:06;;;;;;;;;;;;;;;13.64;71.04;100092.88;1048814;28;963;-59
2021/11/26 02:45:57;;;;;;;;;;;;;;;13.65;70.78;100083.88;1047998;28;720;-60
2021/11/26 02:46:47;;;;;;;;;;;;;;;13.66;70.96;100093.59;1049078;28;1941;-60
2021/11/26 02:47:37;;;;;;;;;;;;;;;13.64;70.40;100093.72;1048251;28;843;-60
2021/11/26 02:48:28;;;;;;;;;;;;;;;13.65;70.65;100089.22;1048052;28;650;-60
2021/11/26 02:49:19;;;;;;;;;;;;;;;13.64;70.73;100085.69;1049813;28;669;-60
2021/11/26 02:50:10;;;;;;;;;;;;;;;13.67;70.82;100089.94;1049257;28;777;-60
2021/11/26 02:51:00;;;;;;;;;;;;;;;13.66;69.95;100082.88;1048299;28;618;-60
2021/11/26 02:51:50;;;;;;;;;;;;;;;13.66;70.16;100088.25;1048337;28;916;-60
2021/11/26 02:52:41;;;;;;;;;;;;;;;13.66;70.44;100085.56;1048266;28;650;-60
2021/11/26 02:53:31;;;;;;;;;;;;;;;13.65;71.02;100086.56;1048206;28;701;-60
2021/11/26 02:54:22;;;;;;;;;;;;;;;13.64;70.49;100084.84;1047952;28;696;-60
2021/11/26 02:55:12;;;;;;;;;;;;;;;13.64;70.32;100079.50;1048305;28;673;-60
2021/11/26 02:56:03;;;;;;;;;;;;;;;13.63;70.28;100080.47;1047941;28;853;-60
2021/11/26 02:56:53;;;;;;;;;;;;;;;13.65;70.57;100083.88;1048058;28;1306;-61
2021/11/26 02:57:43;;;;;;;;;;;;;;;13.63;70.75;100075.13;1048399;28;754;-60
2021/11/26 02:58:34;;;;;;;;;;;;;;;13.64;70.50;100082.19;1048546;28;688;-61
2021/11/26 02:59:24;;;;;;;;;;;;;;;13.64;70.32;100072.31;1048594;28;1075;-62
2021/11/26 03:00:15;;;;;;;;;;;;;;;13.62;70.43;100068.06;1048726;28;887;-60
2021/11/26 03:01:05;;;;;;;;;;;;;;;13.63;70.92;100075.13;1049079;28;772;-60
2021/11/26 03:01:56;;;;;;;;;;;;;;;13.61;70.42;100072.63;1051243;28;955;-61
2021/11/26 03:02:46;;;;;;;;;;;;;;;13.62;70.47;100079.63;1049015;28;649;-61
2021/11/26 03:03:36;;;;;;;;;;;;;;;13.63;70.27;100075.13;1049065;28;744;-61
2021/11/26 03:04:27;;;;;;;;;;;;;;;13.62;70.86;100068.06;1048747;28;877;-61
2021/11/26 03:05:17;;;;;;;;;;;;;;;13.62;70.44;100068.94;1049122;28;760;-61
2021/11/26 03:06:08;;;;;;;;;;;;;;;13.62;70.06;100073.44;1048833;28;920;-60
2021/11/26 03:06:58;;;;;;;;;;;;;;;13.61;70.28;100069.09;1048835;28;1902;-59
2021/11/26 03:07:49;;;;;;;;;;;;;;;13.62;70.07;100076.09;1049226;28;710;-60
2021/11/26 03:08:39;;;;;;;;;;;;;;;13.62;70.43;100074.28;1052574;28;2061;-61
2021/11/26 03:09:29;;;;;;;;;;;;;;;13.62;70.55;100076.97;1053467;28;700;-61
2021/11/26 03:10:20;;;;;;;;;;;;;;;13.63;70.09;100085.84;1053024;28;774;-61
2021/11/26 03:11:10;;;;;;;;;;;;;;;13.62;70.32;100084.13;1053200;28;777;-61
2021/11/26 03:12:01;;;;;;;;;;;;;;;13.61;70.04;100085.16;1058612;28;653;-60
2021/11/26 03:12:51;;;;;;;;;;;;;;;13.59;70.98;100079.94;1056984;28;883;-60
2021/11/26 03:13:42;;;;;;;;;;;;;;;13.58;71.04;100078.25;1053709;28;705;-60
2021/11/26 03:14:32;;;;;;;;;;;;;;;13.60;70.40;100072.75;1052976;28;1480;-60
2021/11/26 03:15:22;;;;;;;;;;;;;;;13.60;70.34;100070.06;1053126;28;682;-60
2021/11/26 03:16:13;;;;;;;;;;;;;;;13.60;70.36;100059.38;1052911;28;800;-60
2021/11/26 03:17:03;;;;;;;;;;;;;;;13.60;70.38;100064.72;1053057;28;683;-59
2021/11/26 03:17:55;;;;;;;;;;;;;;;13.58;70.36;100056.81;1056806;28;1917;-60
2021/11/26 03:18:45;;;;;;;;;;;;;;;13.58;70.99;100058.66;1053900;28;1033;-60
2021/11/26 03:19:36;;;;;;;;;;;;;;;13.58;70.13;100064.00;1049832;28;1813;-60
2021/11/26 03:20:26;;;;;;;;;;;;;;;13.59;70.04;100055.00;1049544;28;798;-60
2021/11/26 03:21:17;;;;;;;;;;;;;;;13.57;70.11;100049.78;1050549;28;784;-60
2021/11/26 03:22:07;;;;;;;;;;;;;;;13.59;69.85;100057.69;1049422;28;673;-60
2021/11/26 03:22:57;;;;;;;;;;;;;;;13.58;70.60;100047.94;1048792;28;863;-60
2021/11/26 03:23:48;;;;;;;;;;;;;;;13.57;70.03;100046.25;1048858;28;635;-60
2021/11/26 03:24:38;;;;;;;;;;;;;;;13.58;70.80;100042.59;1048745;28;724;-60
2021/11/26 03:25:29;;;;;;;;;;;;;;;13.59;70.64;100046.97;1048611;28;843;-61
2021/11/26 03:26:19;;;;;;;;;;;;;;;13.57;70.15;100038.22;1048676;28;634;-62
2021/11/26 03:27:10;;;;;;;;;;;;;;;13.55;71.07;100036.53;1048603;28;850;-62
2021/11/26 03:28:00;;;;;;;;;;;;;;;13.55;70.80;100035.69;1051597;28;1986;-62
2021/11/26 03:28:50;;;;;;;;;;;;;;;13.54;70.97;100032.16;1053218;28;704;-62
2021/11/26 03:29:41;;;;;;;;;;;;;;;13.53;70.52;100038.50;1052895;28;771;-62
2021/11/26 03:30:31;;;;;;;;;;;;;;;13.54;70.33;100033.97;1053024;28;1108;-61
2021/11/26 03:31:22;;;;;;;;;;;;;;;13.53;70.80;100034.97;1052730;28;1279;-61
2021/11/26 03:32:12;;;;;;;;;;;;;;;13.54;70.58;100021.44;1053091;28;773;-61
2021/11/26 03:33:02;;;;;;;;;;;;;;;13.55;70.74;100020.47;1053252;28;685;-61
2021/11/26 03:33:53;;;;;;;;;;;;;;;13.54;70.05;100016.09;1052900;28;716;-62
2021/11/26 03:34:43;;;;;;;;;;;;;;;13.52;70.31;100007.34;1053118;28;657;-60
2021/11/26 03:35:34;;;;;;;;;;;;;;;13.52;69.99;99999.31;1052718;28;792;-62
2021/11/26 03:36:24;;;;;;;;;;;;;;;13.51;70.59;99991.44;1052912;28;701;-62
2021/11/26 03:37:14;;;;;;;;;;;;;;;13.52;70.42;99993.97;1053240;28;622;-62
2021/11/26 03:38:05;;;;;;;;;;;;;;;13.53;70.31;99984.97;1049395;28;621;-62
2021/11/26 03:38:55;;;;;;;;;;;;;;;13.54;70.33;99983.97;1048917;28;704;-61
2021/11/26 03:39:46;;;;;;;;;;;;;;;13.53;70.25;99984.97;1049822;28;862;-62
2021/11/26 03:40:36;;;;;;;;;;;;;;;13.54;70.60;99969.75;1048703;28;618;-61
2021/11/26 03:41:27;;;;;;;;;;;;;;;13.53;70.35;99968.91;1048951;28;613;-61
2021/11/26 03:42:17;;;;;;;;;;;;;;;13.52;70.30;99967.19;1048732;28;617;-61
2021/11/26 03:43:07;;;;;;;;;;;;;;;13.53;70.61;99954.66;1048936;28;841;-61
2021/11/26 03:43:58;;;;;;;;;;;;;;;13.50;70.76;99957.63;1048540;28;899;-61
2021/11/26 03:44:48;;;;;;;;;;;;;;;13.52;69.91;99950.28;1048814;28;716;-62
2021/11/26 03:45:40;;;;;;;;;;;;;;;13.52;70.04;99958.31;1048957;28;800;-61
2021/11/26 03:46:30;;;;;;;;;;;;;;;13.51;70.63;99944.09;1053795;28;1309;-61
2021/11/26 03:47:21;;;;;;;;;;;;;;;13.52;70.67;99955.66;1054266;28;943;-61
2021/11/26 03:48:11;;;;;;;;;;;;;;;13.50;70.02;99947.75;1052496;28;985;-61
2021/11/26 03:49:01;;;;;;;;;;;;;;;13.52;69.94;99952.97;1057328;28;626;-61
2021/11/26 03:49:52;;;;;;;;;;;;;;;13.52;70.56;99940.44;1056556;28;693;-62
2021/11/26 03:50:42;;;;;;;;;;;;;;;13.52;70.43;99948.47;1056776;28;677;-62
2021/11/26 03:51:33;;;;;;;;;;;;;;;13.53;70.41;99946.63;1056333;28;726;-62
2021/11/26 03:52:24;;;;;;;;;;;;;;;13.53;69.83;99941.28;1057752;28;932;-62
2021/11/26 03:53:14;;;;;;;;;;;;;;;13.53;70.06;99946.63;1056491;28;751;-61
2021/11/26 03:54:04;;;;;;;;;;;;;;;13.52;70.00;99948.47;1054218;28;796;-62
2021/11/26 03:54:55;;;;;;;;;;;;;;;13.50;70.37;99942.41;1052412;28;696;-62
2021/11/26 03:55:45;;;;;;;;;;;;;;;13.50;70.04;99939.72;1057116;28;699;-62
2021/11/26 03:56:36;;;;;;;;;;;;;;;13.50;70.84;99939.72;1056610;28;952;-59
2021/11/26 03:57:26;;;;;;;;;;;;;;;13.49;69.82;99943.38;1056393;28;760;-59
2021/11/26 03:58:16;;;;;;;;;;;;;;;13.51;70.48;99933.38;1054493;28;1815;-59
2021/11/26 03:59:07;;;;;;;;;;;;;;;13.50;70.39;99942.41;1052863;28;729;-59
2021/11/26 03:59:58;;;;;;;;;;;;;;;13.49;70.31;99934.50;1052871;28;710;-59
2021/11/26 04:00:48;;;;;;;;;;;;;;;13.51;70.59;99928.03;1052949;28;741;-59
2021/11/26 04:01:39;;;;;;;;;;;;;;;13.49;69.65;99927.34;1052820;28;697;-59
2021/11/26 04:02:29;;;;;;;;;;;;;;;13.49;69.79;99927.34;1052755;28;759;-58
2021/11/26 04:03:20;;;;;;;;;;;;;;;13.47;70.60;99931.97;1053237;28;701;-58
2021/11/26 04:04:10;;;;;;;;;;;;;;;13.47;70.56;99923.94;1052941;28;688;-56
2021/11/26 04:05:00;;;;;;;;;;;;;;;13.48;69.89;99911.41;1053077;28;810;-59
2021/11/26 04:05:51;;;;;;;;;;;;;;;13.49;70.40;99923.81;1052710;28;1197;-58
2021/11/26 04:06:41;;;;;;;;;;;;;;;13.48;70.65;99912.25;1052705;28;2079;-59
2021/11/26 04:07:32;;;;;;;;;;;;;;;13.49;70.30;99913.94;1052599;28;707;-59
2021/11/26 04:08:22;;;;;;;;;;;;;;;13.48;70.84;99914.94;1052801;28;685;-59
2021/11/26 04:09:12;;;;;;;;;;;;;;;13.49;70.18;99913.09;1053003;28;837;-62
2021/11/26 04:10:03;;;;;;;;;;;;;;;13.48;69.60;99909.56;1052787;28;741;-60
2021/11/26 04:10:53;;;;;;;;;;;;;;;13.49;70.38;99911.28;1052561;28;842;-60
2021/11/26 04:11:44;;;;;;;;;;;;;;;13.48;70.05;99901.56;1053236;28;727;-60
2021/11/26 04:12:35;;;;;;;;;;;;;;;13.48;70.78;99904.22;1052991;28;866;-60
2021/11/26 04:13:25;;;;;;;;;;;;;;;13.48;69.61;99901.56;1052828;28;766;-59
2021/11/26 04:14:15;;;;;;;;;;;;;;;13.47;70.63;99902.53;1052894;28;1014;-60
2021/11/26 04:15:06;;;;;;;;;;;;;;;13.48;69.92;99903.38;1052679;28;887;-60
2021/11/26 04:16:02;;;;;;;;;;;;;;;13.49;69.78;99894.38;1052694;28;711;-60
2021/11/26 04:16:52;;;;;;;;;;;;;;;13.48;69.88;99909.56;1053483;28;638;-60
2021/11/26 04:17:45;;;;;;;;;;;;;;;13.48;70.03;99903.38;1052766;28;723;-60
2021/11/26 04:18:35;;;;;;;;;;;;;;;13.47;70.00;99891.81;1052948;28;755;-60
2021/11/26 04:19:26;;;;;;;;;;;;;;;13.47;70.39;99896.34;1052575;28;970;-60
2021/11/26 04:20:16;;;;;;;;;;;;;;;13.47;70.33;99894.50;1052893;28;719;-60
2021/11/26 04:21:07;;;;;;;;;;;;;;;13.47;70.04;99899.00;1052681;28;802;-60
2021/11/26 04:21:57;;;;;;;;;;;;;;;13.47;70.63;99883.78;1052797;28;783;-59
2021/11/26 04:22:47;;;;;;;;;;;;;;;13.46;69.83;99897.31;1052992;28;773;-60
2021/11/26 04:23:38;;;;;;;;;;;;;;;13.46;69.90;99886.63;1049911;28;748;-58
2021/11/26 04:24:28;;;;;;;;;;;;;;;13.47;70.00;99882.94;1049015;28;944;-59
2021/11/26 04:25:19;;;;;;;;;;;;;;;13.47;69.91;99889.16;1054525;28;807;-59
2021/11/26 04:26:09;;;;;;;;;;;;;;;13.46;70.71;99881.25;1053336;28;618;-59
2021/11/26 04:27:00;;;;;;;;;;;;;;;13.45;69.76;99880.41;1052859;28;1898;-59
2021/11/26 04:27:50;;;;;;;;;;;;;;;13.45;70.17;99879.56;1052667;28;935;-59
2021/11/26 04:28:40;;;;;;;;;;;;;;;13.45;70.01;99890.28;1052973;28;665;-59